createdAt,value
2023-03-10T00:00:01.880Z,1.80
2023-03-10T00:02:32.946Z,1.80
2023-03-10T00:05:00.972Z,1.80
2023-03-10T00:07:29.040Z,1.80
2023-03-10T00:09:57.103Z,1.80
2023-03-10T00:12:27.827Z,1.80
2023-03-10T00:14:56.409Z,1.80
2023-03-10T00:17:25.798Z,1.80
2023-03-10T00:19:53.829Z,1.80
2023-03-10T00:22:21.841Z,1.80
2023-03-10T00:24:49.882Z,1.70
2023-03-10T00:27:17.925Z,1.70
2023-03-10T00:29:45.994Z,1.70
2023-03-10T00:32:14.033Z,1.70
2023-03-10T00:34:43.458Z,1.70
2023-03-10T00:37:11.543Z,1.70
2023-03-10T00:39:39.570Z,1.70
2023-03-10T00:42:07.932Z,1.70
2023-03-10T00:44:35.976Z,1.70
2023-03-10T00:47:04.002Z,1.70
2023-03-10T00:49:32.046Z,1.70
2023-03-10T00:52:01.412Z,1.70
2023-03-10T00:54:29.444Z,1.70
2023-03-10T00:56:57.504Z,1.60
2023-03-10T00:59:25.534Z,1.60
2023-03-10T01:01:53.614Z,1.60
2023-03-10T01:04:21.716Z,1.60
2023-03-10T01:06:49.879Z,1.70
2023-03-10T01:09:19.282Z,1.70
2023-03-10T01:11:47.529Z,1.70
2023-03-10T01:14:16.277Z,1.70
2023-03-10T01:16:44.298Z,1.70
2023-03-10T01:19:12.346Z,1.70
2023-03-10T01:21:40.405Z,1.70
2023-03-10T01:24:09.561Z,1.70
2023-03-10T01:26:38.924Z,1.70
2023-03-10T01:29:07.489Z,1.70
2023-03-10T01:31:35.564Z,1.70
2023-03-10T01:34:04.035Z,1.60
2023-03-10T01:36:32.055Z,1.70
2023-03-10T01:39:00.757Z,1.60
2023-03-10T01:41:28.763Z,1.70
2023-03-10T01:43:58.511Z,1.60
2023-03-10T01:46:37.882Z,1.60
2023-03-10T01:49:25.305Z,1.60
2023-03-10T01:51:56.985Z,1.60
2023-03-10T01:54:27.317Z,1.60
2023-03-10T01:56:55.465Z,1.60
2023-03-10T01:59:24.953Z,1.60
2023-03-10T02:01:53.085Z,1.60
2023-03-10T02:04:24.454Z,1.60
2023-03-10T02:06:52.537Z,1.60
2023-03-10T02:09:21.210Z,1.60
2023-03-10T02:11:49.426Z,1.50
2023-03-10T02:14:17.644Z,1.50
2023-03-10T02:16:47.093Z,1.50
2023-03-10T02:19:24.207Z,1.40
2023-03-10T02:21:54.890Z,1.50
2023-03-10T02:24:25.330Z,1.50
2023-03-10T02:26:56.113Z,1.50
2023-03-10T02:29:27.627Z,1.60
2023-03-10T02:31:56.595Z,1.60
2023-03-10T02:34:25.056Z,1.50
2023-03-10T02:36:53.057Z,1.50
2023-03-10T02:39:21.092Z,1.60
2023-03-10T02:41:49.131Z,1.50
2023-03-10T02:44:21.580Z,1.60
2023-03-10T02:46:51.036Z,1.50
2023-03-10T02:49:19.052Z,1.60
2023-03-10T02:51:47.678Z,1.60
2023-03-10T02:54:18.484Z,1.60
2023-03-10T02:56:46.640Z,1.60
2023-03-10T02:59:16.416Z,1.60
2023-03-10T03:01:50.630Z,1.50
2023-03-10T03:04:20.664Z,1.50
2023-03-10T03:06:49.386Z,1.40
2023-03-10T03:09:17.496Z,1.50
2023-03-10T03:11:47.221Z,1.40
2023-03-10T03:14:18.325Z,1.50
2023-03-10T03:16:47.514Z,1.40
2023-03-10T03:19:17.027Z,1.50
2023-03-10T03:21:50.166Z,1.50
2023-03-10T03:24:19.015Z,1.40
2023-03-10T03:26:48.123Z,1.40
2023-03-10T03:29:20.086Z,1.40
2023-03-10T03:31:49.512Z,1.40
2023-03-10T03:34:22.537Z,1.40
2023-03-10T03:36:53.874Z,1.30
2023-03-10T03:39:28.165Z,1.40
2023-03-10T03:41:59.869Z,1.30
2023-03-10T03:44:33.066Z,1.30
2023-03-10T03:47:01.955Z,1.30
2023-03-10T03:49:32.276Z,1.20
2023-03-10T03:52:00.283Z,1.20
2023-03-10T03:54:28.550Z,1.20
2023-03-10T03:56:56.578Z,1.20
2023-03-10T03:59:24.755Z,1.20
2023-03-10T04:01:53.236Z,1.20
2023-03-10T04:04:21.300Z,1.20
2023-03-10T04:06:50.689Z,1.20
2023-03-10T04:09:19.208Z,1.30
2023-03-10T04:11:47.203Z,1.20
2023-03-10T04:14:15.408Z,1.20
2023-03-10T04:16:44.423Z,1.20
2023-03-10T04:19:12.795Z,1.20
2023-03-10T04:21:44.311Z,1.20
2023-03-10T04:24:14.861Z,1.20
2023-03-10T04:26:43.176Z,1.20
2023-03-10T04:29:11.727Z,1.20
2023-03-10T04:31:41.814Z,1.20
2023-03-10T04:34:11.027Z,1.10
2023-03-10T04:36:40.112Z,1.20
2023-03-10T04:39:09.866Z,1.20
2023-03-10T04:41:39.256Z,1.10
2023-03-10T04:44:09.523Z,1.10
2023-03-10T04:46:43.601Z,1.20
2023-03-10T04:49:12.119Z,1.20
2023-03-10T04:51:40.184Z,1.20
2023-03-10T04:54:08.329Z,1.10
2023-03-10T04:56:36.389Z,1.20
2023-03-10T04:59:06.295Z,1.20
2023-03-10T05:01:34.801Z,1.20
2023-03-10T05:04:06.247Z,1.20
2023-03-10T05:06:35.685Z,1.20
2023-03-10T05:09:24.309Z,1.20
2023-03-10T05:11:52.406Z,1.20
2023-03-10T05:14:21.845Z,1.20
2023-03-10T05:16:50.117Z,1.30
2023-03-10T05:19:18.334Z,1.30
2023-03-10T05:21:47.394Z,1.20
2023-03-10T05:24:16.709Z,1.20
2023-03-10T05:26:44.813Z,1.20
2023-03-10T05:29:12.984Z,1.30
2023-03-10T05:31:47.308Z,1.30
2023-03-10T05:34:23.822Z,1.30
2023-03-10T05:36:51.960Z,1.30
2023-03-10T05:39:20.831Z,1.30
2023-03-10T05:41:52.206Z,1.30
2023-03-10T05:44:20.707Z,1.30
2023-03-10T05:46:51.031Z,1.30
2023-03-10T05:49:19.170Z,1.30
2023-03-10T05:51:47.299Z,1.30
2023-03-10T05:54:16.782Z,1.20
2023-03-10T05:56:44.908Z,1.30
2023-03-10T05:59:13.117Z,1.20
2023-03-10T06:01:41.350Z,1.20
2023-03-10T06:04:10.767Z,1.20
2023-03-10T06:06:38.856Z,1.20
2023-03-10T06:09:07.266Z,1.10
2023-03-10T06:11:35.288Z,1.10
2023-03-10T06:14:04.357Z,1.10
2023-03-10T06:16:32.464Z,1.20
2023-03-10T06:19:00.546Z,1.10
2023-03-10T06:21:29.927Z,1.10
2023-03-10T06:23:57.936Z,1.10
2023-03-10T06:26:26.008Z,1.20
2023-03-10T06:28:54.026Z,1.10
2023-03-10T06:31:23.423Z,1.20
2023-03-10T06:33:51.442Z,1.20
2023-03-10T06:36:19.578Z,1.20
2023-03-10T06:38:48.957Z,1.30
2023-03-10T06:41:17.481Z,1.30
2023-03-10T06:43:45.506Z,1.30
2023-03-10T06:46:13.969Z,1.30
2023-03-10T06:48:42.928Z,1.30
2023-03-10T06:51:11.865Z,1.30
2023-03-10T06:53:39.867Z,1.30
2023-03-10T06:56:10.508Z,1.30
2023-03-10T06:58:38.557Z,1.30
2023-03-10T07:01:07.634Z,1.30
2023-03-10T07:03:35.807Z,1.30
2023-03-10T07:06:05.013Z,1.30
2023-03-10T07:08:33.001Z,1.40
2023-03-10T07:11:01.019Z,1.30
2023-03-10T07:13:30.366Z,1.30
2023-03-10T07:15:58.379Z,1.30
2023-03-10T07:18:27.843Z,1.30
2023-03-10T07:20:56.022Z,1.30
2023-03-10T07:23:24.128Z,1.40
2023-03-10T07:25:53.298Z,1.40
2023-03-10T07:28:21.319Z,1.30
2023-03-10T07:30:50.786Z,1.30
2023-03-10T07:33:18.804Z,1.30
2023-03-10T07:35:46.939Z,1.40
2023-03-10T07:38:15.011Z,1.40
2023-03-10T07:40:43.054Z,1.50
2023-03-10T07:43:11.095Z,1.50
2023-03-10T07:45:39.308Z,1.50
2023-03-10T07:48:08.760Z,1.60
2023-03-10T07:50:36.789Z,1.50
2023-03-10T07:53:04.778Z,1.50
2023-03-10T07:55:32.808Z,1.50
2023-03-10T07:58:01.280Z,1.50
2023-03-10T08:00:29.349Z,1.50
2023-03-10T08:02:57.372Z,1.40
2023-03-10T08:05:27.380Z,1.40
2023-03-10T08:07:55.431Z,1.50
2023-03-10T08:10:23.457Z,1.50
2023-03-10T08:12:51.487Z,1.50
2023-03-10T08:15:19.528Z,1.50
2023-03-10T08:17:47.676Z,1.40
2023-03-10T08:20:15.920Z,1.40
2023-03-10T08:22:45.271Z,1.40
2023-03-10T08:25:14.266Z,1.40
2023-03-10T08:27:42.591Z,1.60
2023-03-10T08:30:12.435Z,1.50
2023-03-10T08:32:41.233Z,1.60
2023-03-10T08:35:10.323Z,1.60
2023-03-10T08:37:38.682Z,1.70
2023-03-10T08:40:09.822Z,1.80
2023-03-10T08:42:37.826Z,1.60
2023-03-10T08:45:08.715Z,1.70
2023-03-10T08:47:37.075Z,1.80
2023-03-10T08:50:05.585Z,1.80
2023-03-10T08:52:33.836Z,1.80
2023-03-10T08:55:01.907Z,1.80
2023-03-10T08:57:31.282Z,1.70
2023-03-10T08:59:59.324Z,1.70
2023-03-10T09:02:29.423Z,1.80
2023-03-10T09:04:57.573Z,1.60
2023-03-10T09:07:25.684Z,1.80
2023-03-10T09:09:53.697Z,1.80
2023-03-10T09:12:21.736Z,1.90
2023-03-10T09:14:51.107Z,1.90
2023-03-10T09:17:19.560Z,1.80
2023-03-10T09:19:47.824Z,1.90
2023-03-10T09:22:15.843Z,1.90
2023-03-10T09:24:43.830Z,1.90
2023-03-10T09:27:11.849Z,1.90
2023-03-10T09:29:43.443Z,2.00
2023-03-10T09:32:13.507Z,2.00
2023-03-10T09:34:41.771Z,2.10
2023-03-10T09:37:09.946Z,1.90
2023-03-10T09:39:37.962Z,1.90
2023-03-10T09:42:37.938Z,1.90
2023-03-10T09:45:23.302Z,1.90
2023-03-10T09:47:58.254Z,1.90
2023-03-10T09:50:31.214Z,2.00
2023-03-10T09:53:02.332Z,1.90
2023-03-10T09:55:31.411Z,2.00
2023-03-10T09:57:59.423Z,2.00
2023-03-10T10:00:29.751Z,2.00
2023-03-10T10:03:13.292Z,2.10
2023-03-10T10:05:42.828Z,2.10
2023-03-10T10:08:18.346Z,2.10
2023-03-10T10:10:46.420Z,2.00
2023-03-10T10:13:15.894Z,2.10
2023-03-10T10:15:45.609Z,2.10
2023-03-10T10:18:21.326Z,2.20
2023-03-10T10:20:53.960Z,2.20
2023-03-10T10:23:25.160Z,2.00
2023-03-10T10:25:53.513Z,1.90
2023-03-10T10:28:24.822Z,1.90
2023-03-10T10:30:52.858Z,2.00
2023-03-10T10:33:22.227Z,1.90
2023-03-10T10:36:01.369Z,2.00
2023-03-10T10:38:30.132Z,2.10
2023-03-10T10:41:05.082Z,2.10
2023-03-10T10:43:40.744Z,2.20
2023-03-10T10:46:09.804Z,2.10
2023-03-10T10:48:41.132Z,2.10
2023-03-10T10:51:20.842Z,2.10
2023-03-10T10:53:48.992Z,2.20
2023-03-10T10:56:17.692Z,2.20
2023-03-10T10:58:46.197Z,2.10
2023-03-10T11:01:15.031Z,2.10
2023-03-10T11:03:44.609Z,2.20
2023-03-10T11:06:16.893Z,2.30
2023-03-10T11:08:50.959Z,2.40
2023-03-10T11:11:25.467Z,2.40
2023-03-10T11:14:05.563Z,2.40
2023-03-10T11:16:38.004Z,2.40
2023-03-10T11:19:10.128Z,2.50
2023-03-10T11:21:39.997Z,2.40
2023-03-10T11:24:13.110Z,2.50
2023-03-10T11:26:47.795Z,2.50
2023-03-10T11:29:22.562Z,2.60
2023-03-10T11:31:52.850Z,2.70
2023-03-10T11:34:25.705Z,2.80
2023-03-10T11:37:01.606Z,2.90
2023-03-10T11:39:44.298Z,2.80
2023-03-10T11:42:15.800Z,2.80
2023-03-10T11:44:47.073Z,2.70
2023-03-10T11:47:18.084Z,2.60
2023-03-10T11:49:47.465Z,2.60
2023-03-10T11:52:16.935Z,2.70
2023-03-10T11:54:46.286Z,3.00
2023-03-10T11:57:15.394Z,2.90
2023-03-10T11:59:47.702Z,2.90
2023-03-10T12:02:18.791Z,2.90
2023-03-10T12:04:49.765Z,2.60
2023-03-10T12:07:20.833Z,2.50
2023-03-10T12:09:50.448Z,2.70
2023-03-10T12:12:19.873Z,2.70
2023-03-10T12:14:48.160Z,2.60
2023-03-10T12:17:16.835Z,2.60
2023-03-10T12:20:23.970Z,2.70
2023-03-10T12:22:52.128Z,2.80
2023-03-10T12:25:48.109Z,3.00
2023-03-10T12:28:24.512Z,2.80
2023-03-10T12:30:53.245Z,2.60
2023-03-10T12:33:42.104Z,2.50
2023-03-10T12:36:12.709Z,2.50
2023-03-10T12:38:45.680Z,2.40
2023-03-10T12:41:14.252Z,2.50
2023-03-10T12:43:53.661Z,2.40
2023-03-10T12:46:24.444Z,2.30
2023-03-10T12:48:59.425Z,2.40
2023-03-10T12:51:28.827Z,2.30
2023-03-10T12:53:59.740Z,2.30
2023-03-10T12:56:36.780Z,2.40
2023-03-10T12:59:09.387Z,2.40
2023-03-10T13:01:49.560Z,2.50
2023-03-10T13:04:22.951Z,2.40
2023-03-10T13:06:52.327Z,2.40
2023-03-10T13:09:23.355Z,2.40
2023-03-10T13:11:53.425Z,2.40
2023-03-10T13:14:22.105Z,2.40
2023-03-10T13:17:00.748Z,2.50
2023-03-10T13:19:29.699Z,2.50
2023-03-10T13:21:59.095Z,2.50
2023-03-10T13:24:27.931Z,2.60
2023-03-10T13:27:06.312Z,2.50
2023-03-10T13:29:34.392Z,2.40
2023-03-10T13:32:02.508Z,2.30
2023-03-10T13:34:32.141Z,2.30
2023-03-10T13:37:05.448Z,2.20
2023-03-10T13:39:33.617Z,2.20
2023-03-10T13:42:02.194Z,2.30
2023-03-10T13:44:30.760Z,2.20
2023-03-10T13:47:00.673Z,2.20
2023-03-10T13:49:29.593Z,2.20
2023-03-10T13:51:58.468Z,2.20
2023-03-10T13:54:29.297Z,2.20
2023-03-10T13:56:58.510Z,2.10
2023-03-10T13:59:28.187Z,2.20
2023-03-10T14:01:57.766Z,2.20
2023-03-10T14:04:44.915Z,2.20
2023-03-10T14:07:14.358Z,2.10
2023-03-10T14:09:43.739Z,2.10
2023-03-10T14:12:12.422Z,2.10
2023-03-10T14:14:41.763Z,2.20
2023-03-10T14:17:10.191Z,2.10
2023-03-10T14:19:48.609Z,2.10
2023-03-10T14:22:24.000Z,2.00
2023-03-10T14:24:53.369Z,2.00
2023-03-10T14:27:21.394Z,2.00
2023-03-10T14:29:50.710Z,1.90
2023-03-10T14:32:19.263Z,1.90
2023-03-10T14:34:47.398Z,2.00
2023-03-10T14:37:15.623Z,2.00
2023-03-10T14:39:43.614Z,2.10
2023-03-10T14:42:18.833Z,2.20
2023-03-10T14:44:46.841Z,2.30
2023-03-10T14:47:15.293Z,2.20
2023-03-10T14:49:43.409Z,2.10
2023-03-10T14:52:15.869Z,2.10
2023-03-10T14:54:43.906Z,2.00
2023-03-10T14:57:12.041Z,2.00
2023-03-10T14:59:41.401Z,1.90
2023-03-10T15:02:13.988Z,1.80
2023-03-10T15:04:42.041Z,1.70
2023-03-10T15:07:10.939Z,1.90
2023-03-10T15:09:38.952Z,1.90
2023-03-10T15:12:07.505Z,1.90
2023-03-10T15:14:35.516Z,1.90
2023-03-10T15:17:05.135Z,1.90
2023-03-10T15:19:33.221Z,1.90
2023-03-10T15:22:01.260Z,1.90
2023-03-10T15:24:29.270Z,1.90
2023-03-10T15:26:57.295Z,1.80
2023-03-10T15:29:25.292Z,1.90
2023-03-10T15:31:53.316Z,1.80
2023-03-10T15:34:22.667Z,1.80
2023-03-10T15:36:50.778Z,1.80
2023-03-10T15:39:30.732Z,1.80
2023-03-10T15:41:59.820Z,1.90
2023-03-10T15:44:27.825Z,1.90
2023-03-10T15:46:55.993Z,1.90
2023-03-10T15:49:25.528Z,2.00
2023-03-10T15:51:53.533Z,2.00
2023-03-10T15:54:21.628Z,2.00
2023-03-10T15:56:49.715Z,2.00
2023-03-10T15:59:18.040Z,2.00
2023-03-10T16:01:46.155Z,2.00
2023-03-10T16:04:14.235Z,1.90
2023-03-10T16:06:43.605Z,2.00
2023-03-10T16:09:11.808Z,1.90
2023-03-10T16:11:39.848Z,2.00
2023-03-10T16:14:07.875Z,2.00
2023-03-10T16:16:35.980Z,2.00
2023-03-10T16:19:04.099Z,1.90
2023-03-10T16:21:32.093Z,1.90
2023-03-10T16:24:01.467Z,2.00
2023-03-10T16:26:29.751Z,1.80
2023-03-10T16:28:57.778Z,1.80
2023-03-10T16:31:26.990Z,1.70
2023-03-10T16:33:55.548Z,1.70
2023-03-10T16:36:24.554Z,1.70
2023-03-10T16:38:53.691Z,1.70
2023-03-10T16:41:24.001Z,1.70
2023-03-10T16:43:52.076Z,1.70
2023-03-10T16:46:24.983Z,1.70
2023-03-10T16:48:53.552Z,1.70
2023-03-10T16:51:26.483Z,1.70
2023-03-10T16:53:54.696Z,1.70
2023-03-10T16:56:26.169Z,1.70
2023-03-10T16:58:54.210Z,1.70
2023-03-10T17:01:24.038Z,1.60
2023-03-10T17:03:52.357Z,1.60
2023-03-10T17:06:22.638Z,1.60
2023-03-10T17:08:50.870Z,1.60
2023-03-10T17:11:21.292Z,1.60
2023-03-10T17:13:53.189Z,1.60
2023-03-10T17:16:23.484Z,1.60
2023-03-10T17:18:51.832Z,1.50
2023-03-10T17:21:21.519Z,1.50
2023-03-10T17:23:49.619Z,1.60
2023-03-10T17:26:17.896Z,1.70
2023-03-10T17:28:46.458Z,1.60
2023-03-10T17:31:16.652Z,1.50
2023-03-10T17:33:44.678Z,1.60
2023-03-10T17:36:13.718Z,1.50
2023-03-10T17:38:41.856Z,1.60
2023-03-10T17:41:11.046Z,1.50
2023-03-10T17:43:39.076Z,1.50
2023-03-10T17:46:08.180Z,1.50
2023-03-10T17:48:37.700Z,1.50
2023-03-10T17:51:05.909Z,1.50
2023-03-10T17:53:33.995Z,1.40
2023-03-10T17:56:04.153Z,1.50
2023-03-10T17:58:32.224Z,1.60
2023-03-10T18:01:00.242Z,1.40
2023-03-10T18:03:28.315Z,1.50
2023-03-10T18:05:57.673Z,1.50
2023-03-10T18:08:25.699Z,1.50
2023-03-10T18:11:00.492Z,1.50
2023-03-10T18:13:28.600Z,1.50
2023-03-10T18:15:56.823Z,1.40
2023-03-10T18:18:25.015Z,1.40
2023-03-10T18:20:53.133Z,1.50
2023-03-10T18:23:23.263Z,1.40
2023-03-10T18:25:51.293Z,1.50
2023-03-10T18:28:21.224Z,1.60
2023-03-10T18:30:50.281Z,1.50
2023-03-10T18:33:18.316Z,1.50
2023-03-10T18:35:47.042Z,1.50
2023-03-10T18:38:15.568Z,1.40
2023-03-10T18:40:44.951Z,1.50
2023-03-10T18:43:13.000Z,1.40
2023-03-10T18:45:43.949Z,1.50
2023-03-10T18:48:11.974Z,1.40
2023-03-10T18:50:40.032Z,1.40
2023-03-10T18:53:08.057Z,1.40
2023-03-10T18:55:36.067Z,1.40
2023-03-10T18:58:05.443Z,1.50
2023-03-10T19:00:33.444Z,1.50
2023-03-10T19:03:01.512Z,1.60
2023-03-10T19:05:29.597Z,1.60
2023-03-10T19:07:57.633Z,1.50
2023-03-10T19:10:25.787Z,1.50
2023-03-10T19:12:53.851Z,1.50
2023-03-10T19:15:23.211Z,1.40
2023-03-10T19:17:51.211Z,1.20
2023-03-10T19:20:19.332Z,1.20
2023-03-10T19:22:49.560Z,1.30
2023-03-10T19:25:17.732Z,1.30
2023-03-10T19:27:45.778Z,1.30
2023-03-10T19:30:16.347Z,1.30
2023-03-10T19:32:45.856Z,1.40
2023-03-10T19:35:13.998Z,1.50
2023-03-10T19:37:43.634Z,1.40
2023-03-10T19:40:14.769Z,1.40
2023-03-10T19:42:43.266Z,1.40
2023-03-10T19:45:12.224Z,1.50
2023-03-10T19:47:41.563Z,1.50
2023-03-10T19:50:12.270Z,1.40
2023-03-10T19:52:44.187Z,1.40
2023-03-10T19:55:16.420Z,1.40
2023-03-10T19:57:44.425Z,1.40
2023-03-10T20:00:14.858Z,1.50
2023-03-10T20:02:44.668Z,1.40
2023-03-10T20:05:14.815Z,1.40
2023-03-10T20:07:42.932Z,1.30
2023-03-10T20:10:12.190Z,1.40
2023-03-10T20:12:40.220Z,1.40
2023-03-10T20:15:09.154Z,1.40
2023-03-10T20:17:37.137Z,1.50
2023-03-10T20:20:10.480Z,1.40
2023-03-10T20:22:40.876Z,1.40
2023-03-10T20:25:09.898Z,1.40
2023-03-10T20:27:37.935Z,1.40
2023-03-10T20:30:08.077Z,1.50
2023-03-10T20:32:36.196Z,1.40
2023-03-10T20:35:04.752Z,1.30
2023-03-10T20:37:33.785Z,1.30
2023-03-10T20:40:03.353Z,1.30
2023-03-10T20:42:31.363Z,1.20
2023-03-10T20:44:59.397Z,1.30
2023-03-10T20:47:27.441Z,1.20
2023-03-10T20:49:55.521Z,1.20
2023-03-10T20:52:23.516Z,1.20
2023-03-10T20:54:53.789Z,1.20
2023-03-10T20:57:23.273Z,1.10
2023-03-10T20:59:51.304Z,1.20
2023-03-10T21:02:19.391Z,1.20
2023-03-10T21:04:47.744Z,1.20
2023-03-10T21:07:15.766Z,1.20
2023-03-10T21:09:45.061Z,1.20
2023-03-10T21:12:18.429Z,1.20
2023-03-10T21:14:47.818Z,1.20
2023-03-10T21:17:15.807Z,1.20
2023-03-10T21:19:43.859Z,1.30
2023-03-10T21:22:11.860Z,1.30
2023-03-10T21:24:39.907Z,1.20
2023-03-10T21:27:07.993Z,1.20
2023-03-10T21:29:36.814Z,1.30
2023-03-10T21:32:06.414Z,1.20
2023-03-10T21:34:34.469Z,1.20
2023-03-10T21:37:02.464Z,1.30
2023-03-10T21:39:30.489Z,1.30
2023-03-10T21:41:58.483Z,1.30
2023-03-10T21:44:26.555Z,1.30
2023-03-10T21:46:54.550Z,1.30
2023-03-10T21:49:23.944Z,1.30
2023-03-10T21:51:51.943Z,1.30
2023-03-10T21:54:20.038Z,1.20
2023-03-10T21:56:48.145Z,1.20
2023-03-10T21:59:16.690Z,1.20
2023-03-10T22:01:44.793Z,1.20
2023-03-10T22:04:12.959Z,1.10
2023-03-10T22:06:42.360Z,1.10
2023-03-10T22:09:10.469Z,1.10
2023-03-10T22:11:38.465Z,1.10
2023-03-10T22:14:06.523Z,1.10
2023-03-10T22:16:34.570Z,1.10
2023-03-10T22:19:02.602Z,1.10
2023-03-10T22:21:30.784Z,1.10
2023-03-10T22:24:00.900Z,1.10
2023-03-10T22:26:28.916Z,1.00
2023-03-10T22:28:56.967Z,1.00
2023-03-10T22:31:24.994Z,1.00
2023-03-10T22:33:53.060Z,0.90
2023-03-10T22:36:21.054Z,1.00
2023-03-10T22:38:49.070Z,0.90
2023-03-10T22:41:18.414Z,0.90
2023-03-10T22:43:46.421Z,0.90
2023-03-10T22:46:15.410Z,0.90
2023-03-10T22:48:43.812Z,0.90
2023-03-10T22:51:13.462Z,0.90
2023-03-10T22:53:41.483Z,0.90
2023-03-10T22:56:09.552Z,0.80
2023-03-10T22:58:38.897Z,0.80
2023-03-10T23:01:07.191Z,0.80
2023-03-10T23:03:35.375Z,0.80
2023-03-10T23:06:04.979Z,0.90
2023-03-10T23:08:32.997Z,0.80
2023-03-10T23:11:01.015Z,0.80
2023-03-10T23:13:29.009Z,0.80
2023-03-10T23:15:59.683Z,0.80
2023-03-10T23:18:27.798Z,0.70
2023-03-10T23:20:55.820Z,0.70
2023-03-10T23:23:23.813Z,0.70
2023-03-10T23:25:52.136Z,0.70
2023-03-10T23:28:20.568Z,0.70
2023-03-10T23:30:49.074Z,0.70
2023-03-10T23:33:19.360Z,0.70
2023-03-10T23:35:50.448Z,0.80
2023-03-10T23:38:18.494Z,0.70
2023-03-10T23:40:46.532Z,0.70
2023-03-10T23:43:14.524Z,0.70
2023-03-10T23:45:42.573Z,0.70
2023-03-10T23:48:12.555Z,0.60
2023-03-10T23:50:42.988Z,0.60
2023-03-10T23:53:12.206Z,0.60
2023-03-10T23:55:41.027Z,0.60
2023-03-10T23:58:09.034Z,0.60
